Time;durP1;ratioP1;P1;durP2;ratioP2;P2;SDS_P1;SDS_P2;PMS_P1;PMS_P2;Temp;Humidity;BMP_temperature;BMP_pressure;BME280_temperature;BME280_humidity;BME280_pressure;Samples;Min_cycle;Max_cycle;Signal;HPM_P1;HPM_P2
2022/08/09 00:00:22;;;;;;;10.70;3.20;;;;;;;16.64;60.90;99575.81;88761;1271;98796;-74
2022/08/09 00:02:40;;;;;;;8.00;2.80;;;;;;;16.63;60.88;99574.42;88482;1271;22576;-72
2022/08/09 00:04:41;;;;;;;7.30;2.70;;;;;;;16.62;60.97;99572.55;88430;1274;99872;-71
2022/08/09 00:06:43;;;;;;;4.60;2.90;;;;;;;16.60;60.94;99571.77;88336;1274;22500;-72
2022/08/09 00:08:48;;;;;;;9.90;3.00;;;;;;;16.57;61.04;99572.89;88349;1274;23257;-73
2022/08/09 00:10:49;;;;;;;12.90;3.10;;;;;;;16.53;61.04;99573.11;88456;1271;99925;-71
2022/08/09 00:12:51;;;;;;;6.70;2.50;;;;;;;16.50;61.09;99568.69;88488;1271;27641;-72
2022/08/09 00:14:53;;;;;;;8.40;3.00;;;;;;;16.48;61.15;99570.40;88308;1274;22556;-72
2022/08/09 00:16:55;;;;;;;7.70;3.10;;;;;;;16.47;61.00;99572.07;88358;1271;98913;-70
2022/08/09 00:18:58;;;;;;;11.70;3.10;;;;;;;16.46;61.20;99574.80;88392;1274;22631;-71
2022/08/09 00:21:03;;;;;;;7.70;3.00;;;;;;;16.42;61.15;99567.91;88430;1271;22552;-72
2022/08/09 00:23:04;;;;;;;4.80;2.60;;;;;;;16.40;61.18;99569.69;88520;1271;99183;-71
2022/08/09 00:25:06;;;;;;;7.00;3.60;;;;;;;16.33;61.29;99573.63;88622;1271;22800;-73
2022/08/09 00:27:08;;;;;;;8.00;2.90;;;;;;;16.28;61.32;99572.88;88628;1271;22548;-72
2022/08/09 00:29:10;;;;;;;9.70;2.90;;;;;;;16.25;61.31;99572.77;88340;1271;99561;-72
2022/08/09 00:31:11;;;;;;;6.50;2.90;;;;;;;16.16;61.40;99563.18;88392;1274;24376;-72
2022/08/09 00:33:13;;;;;;;8.10;2.60;;;;;;;16.18;61.51;99569.80;88336;1274;24546;-72
2022/08/09 00:35:15;;;;;;;11.40;3.20;;;;;;;16.16;61.56;99572.20;88370;1274;99741;-72
2022/08/09 00:37:16;;;;;;;4.60;3.10;;;;;;;16.15;61.49;99572.61;88455;1274;22672;-71
2022/08/09 00:39:18;;;;;;;7.60;2.60;;;;;;;16.12;61.62;99574.76;88325;1274;24572;-72
2022/08/09 00:41:21;;;;;;;6.60;2.60;;;;;;;16.09;61.67;99577.45;88397;1271;99400;-72
2022/08/09 00:43:23;;;;;;;3.20;2.90;;;;;;;16.06;61.84;99577.06;88416;1274;25412;-71
2022/08/09 00:45:24;;;;;;;9.30;3.10;;;;;;;16.03;61.76;99576.36;88318;1274;24314;-72
2022/08/09 00:47:26;;;;;;;12.80;3.10;;;;;;;16.01;61.78;99580.56;88289;1274;99034;-72
2022/08/09 00:49:28;;;;;;;6.70;2.90;;;;;;;15.99;61.84;99579.43;88482;1271;22559;-71
2022/08/09 00:51:29;;;;;;;4.40;2.90;;;;;;;15.95;61.86;99580.21;88277;1274;22572;-72
2022/08/09 00:53:31;;;;;;;11.20;3.40;;;;;;;15.92;61.94;99580.62;88184;1275;99246;-72
2022/08/09 00:55:33;;;;;;;12.10;3.10;;;;;;;15.90;62.04;99582.70;88340;1274;22586;-71
2022/08/09 00:57:35;;;;;;;9.30;3.30;;;;;;;15.88;61.91;99582.96;88452;1271;22631;-71
2022/08/09 00:59:42;;;;;;;8.20;3.30;;;;;;;15.85;62.18;99584.39;88452;1271;99186;-71
2022/08/09 01:01:47;;;;;;;9.90;2.80;;;;;;;15.80;62.08;99575.80;88622;1271;23426;-71
2022/08/09 01:03:58;;;;;;;6.80;2.70;;;;;;;15.85;62.05;99583.33;88569;1274;24412;-72
2022/08/09 01:06:25;;;;;;;7.00;3.50;;;;;;;15.86;62.17;99589.14;88295;1274;99489;-71
2022/08/09 01:08:43;;;;;;;8.00;3.30;;;;;;;15.86;62.15;99585.73;88419;1272;22800;-71
2022/08/09 01:10:44;;;;;;;5.50;2.60;;;;;;;15.87;62.13;99592.76;88413;1271;99150;-72
2022/08/09 01:12:54;;;;;;;4.50;2.80;;;;;;;15.88;62.17;99592.69;88432;1274;23031;-72
2022/08/09 01:15:18;;;;;;;4.20;3.00;;;;;;;15.89;62.27;99587.52;88428;1271;22669;-71
2022/08/09 01:17:32;;;;;;;6.70;2.60;;;;;;;15.89;62.23;99590.88;88264;1274;98985;-71
2022/08/09 01:19:47;;;;;;;3.70;2.90;;;;;;;15.88;62.41;99591.14;88406;1272;22628;-73
2022/08/09 01:22:04;;;;;;;4.90;2.80;;;;;;;15.86;62.24;99589.09;88412;1274;25716;-72
2022/08/09 01:24:53;;;;;;;8.00;3.00;;;;;;;15.85;62.58;99587.55;88318;1274;99272;-72
2022/08/09 01:27:08;;;;;;;11.00;3.20;;;;;;;15.83;62.54;99589.65;87757;1282;24456;-72
2022/08/09 01:29:12;;;;;;;4.90;3.00;;;;;;;15.80;62.60;99588.20;87929;1280;99510;-72
2022/08/09 01:31:18;;;;;;;5.50;3.30;;;;;;;15.80;62.74;99591.23;87922;1280;24059;-72
2022/08/09 01:33:24;;;;;;;8.30;2.70;;;;;;;15.77;62.65;99592.10;88675;1282;22675;-71
2022/08/09 01:35:49;;;;;;;4.40;2.80;;;;;;;15.73;62.83;99591.45;87674;1282;99003;-71
2022/08/09 01:37:56;;;;;;;7.70;3.00;;;;;;;15.71;62.86;99594.55;87820;1280;25333;-73
2022/08/09 01:40:03;;;;;;;6.70;2.70;;;;;;;15.72;62.69;99595.73;88015;1280;22577;-71
2022/08/09 01:42:06;;;;;;;6.20;2.90;;;;;;;15.73;62.73;99595.69;88060;1279;99109;-71
2022/08/09 01:44:11;;;;;;;10.20;2.70;;;;;;;15.74;62.75;99599.20;88445;1280;22610;-74
2022/08/09 01:46:14;;;;;;;8.40;2.40;;;;;;;15.75;62.68;99595.78;88427;1280;22630;-72
2022/08/09 01:48:18;;;;;;;6.90;2.70;;;;;;;15.75;62.68;99592.92;87060;1282;1483351;-72
2022/08/09 01:50:23;;;;;;;4.00;2.50;;;;;;;15.77;62.74;99595.64;87851;1282;24230;-72
2022/08/09 01:52:25;;;;;;;16.80;2.80;;;;;;;15.78;63.03;99595.06;87993;1280;25574;-71
2022/08/09 01:54:31;;;;;;;5.50;2.50;;;;;;;15.78;62.96;99592.56;87853;1282;100061;-72
2022/08/09 01:56:38;;;;;;;11.40;3.10;;;;;;;15.80;62.85;99594.94;88182;1280;24850;-73
2022/08/09 01:58:43;;;;;;;14.50;2.70;;;;;;;15.81;62.83;99590.83;87919;1280;100208;-72
2022/08/09 02:00:46;;;;;;;4.20;2.60;;;;;;;15.83;62.79;99595.31;88546;1274;22593;-72
2022/08/09 02:02:50;;;;;;;11.70;3.10;;;;;;;15.83;62.84;99593.91;88467;1271;22629;-72
2022/08/09 02:04:54;;;;;;;10.30;2.70;;;;;;;15.83;62.83;99593.71;88320;1273;99216;-72
2022/08/09 02:07:15;;;;;;;11.50;2.60;;;;;;;15.84;62.85;99594.36;88443;1274;23252;-72
2022/08/09 02:09:19;;;;;;;;;;;;;;;15.86;62.81;99596.01;88520;1271;22528;-71
2022/08/09 02:11:20;;;;;;;11.70;2.60;;;;;;;15.86;62.80;99597.13;88344;1272;85391;-71
2022/08/09 02:13:25;;;;;;;16.00;2.90;;;;;;;15.87;62.84;99598.10;88440;1274;25367;-72
2022/08/09 02:15:31;;;;;;;10.20;2.30;;;;;;;15.87;62.91;99598.42;88462;1274;22562;-71
2022/08/09 02:17:35;;;;;;;7.40;2.70;;;;;;;15.87;62.84;99598.61;88374;1274;99655;-71
2022/08/09 02:19:37;;;;;;;2.70;2.30;;;;;;;15.89;62.86;99600.31;88643;1271;23407;-71
2022/08/09 02:21:43;;;;;;;5.60;2.40;;;;;;;15.90;62.76;99599.01;88550;1271;22578;-72
2022/08/09 02:23:58;;;;;;;9.80;2.40;;;;;;;15.90;62.87;99599.84;88393;1274;99532;-72
2022/08/09 02:26:01;;;;;;;5.10;2.60;;;;;;;15.90;63.05;99597.55;88976;1271;22626;-71
2022/08/09 02:28:07;;;;;;;4.10;2.30;;;;;;;15.92;63.05;99599.56;88617;1274;22563;-71
2022/08/09 02:30:10;;;;;;;5.80;2.40;;;;;;;15.93;62.90;99598.27;88521;1271;99170;-72
2022/08/09 02:32:15;;;;;;;3.00;2.40;;;;;;;15.93;62.92;99595.97;88540;1274;22734;-72
2022/08/09 02:34:22;;;;;;;7.00;2.40;;;;;;;15.94;62.96;99595.58;88502;1274;22682;-71
2022/08/09 02:36:36;;;;;;;12.10;2.60;;;;;;;15.92;63.09;99599.57;88303;1274;99046;-72
2022/08/09 02:38:48;;;;;;;7.70;2.70;;;;;;;15.91;63.08;99598.37;88538;1271;23128;-72
2022/08/09 02:40:52;;;;;;;18.30;2.70;;;;;;;15.92;63.10;99597.45;88471;1271;99624;-71
2022/08/09 02:42:55;;;;;;;9.30;3.20;;;;;;;15.90;63.09;99600.96;88658;1274;22769;-72
2022/08/09 02:45:22;;;;;;;6.80;2.50;;;;;;;15.89;63.12;99601.02;89423;1274;22644;-71
2022/08/09 02:47:27;;;;;;;6.60;3.40;;;;;;;15.90;63.23;99605.21;89376;1271;99208;-72
2022/08/09 02:49:31;;;;;;;7.70;2.70;;;;;;;15.91;63.25;99603.16;89594;1271;22543;-71
2022/08/09 02:51:36;;;;;;;6.70;2.80;;;;;;;15.92;63.19;99605.58;89700;1272;23921;-71
2022/08/09 02:53:43;;;;;;;4.80;2.40;;;;;;;15.92;63.24;99608.77;89636;1271;101168;-72
2022/08/09 02:55:47;;;;;;;6.10;2.90;;;;;;;15.92;63.17;99605.94;89725;1272;24100;-71
2022/08/09 02:57:51;;;;;;;8.50;2.60;;;;;;;15.92;63.21;99605.23;90338;1271;22549;-72
2022/08/09 02:59:57;;;;;;;6.40;3.30;;;;;;;15.94;63.12;99607.80;90008;1274;98749;-71
2022/08/09 03:02:01;;;;;;;9.80;2.80;;;;;;;15.93;63.33;99611.56;89988;1271;22494;-71
2022/08/09 03:04:04;;;;;;;8.80;2.80;;;;;;;15.91;63.21;99612.38;89664;1271;22716;-71
2022/08/09 03:06:13;;;;;;;9.80;2.80;;;;;;;15.89;63.30;99615.18;89386;1274;98466;-71
2022/08/09 03:08:16;;;;;;;8.80;2.80;;;;;;;15.89;63.38;99617.45;89560;1271;22514;-71
2022/08/09 03:10:20;;;;;;;11.10;3.10;;;;;;;15.89;63.34;99616.80;89578;1271;22580;-72
2022/08/09 03:12:26;;;;;;;6.30;2.80;;;;;;;15.87;63.29;99614.43;89529;1271;97785;-72
2022/08/09 03:14:30;;;;;;;7.60;2.80;;;;;;;15.82;63.43;99613.05;89331;1274;22684;-71
2022/08/09 03:16:33;;;;;;;7.30;3.10;;;;;;;15.79;63.45;99613.05;89458;1271;99465;-73
2022/08/09 03:18:35;;;;;;;5.40;2.70;;;;;;;15.76;63.47;99615.17;89465;1274;22725;-71
2022/08/09 03:20:41;;;;;;;5.10;3.00;;;;;;;15.75;63.45;99616.14;89535;1271;22747;-70
2022/08/09 03:22:45;;;;;;;4.70;2.70;;;;;;;15.74;63.60;99616.35;89591;1274;97989;-71
2022/08/09 03:24:47;;;;;;;8.20;3.10;;;;;;;15.73;63.54;99614.83;89476;1274;24054;-71
2022/08/09 03:26:50;;;;;;;4.30;3.00;;;;;;;15.73;63.54;99615.37;89472;1271;22590;-71
2022/08/09 03:28:54;;;;;;;6.40;3.10;;;;;;;15.71;63.70;99615.48;89236;1271;98890;-71
2022/08/09 03:30:56;;;;;;;11.20;2.90;;;;;;;15.68;63.64;99611.05;89596;1272;22561;-71
2022/08/09 03:33:01;;;;;;;10.30;3.00;;;;;;;15.65;63.68;99614.02;89655;1273;22745;-71
2022/08/09 03:35:03;;;;;;;7.40;3.10;;;;;;;15.64;63.60;99611.26;89467;1274;99260;-71
2022/08/09 03:37:05;;;;;;;9.50;3.10;;;;;;;15.63;63.63;99610.13;89661;1271;23510;-71
2022/08/09 03:39:06;;;;;;;6.90;2.80;;;;;;;15.59;63.74;99609.08;89371;1271;22561;-71
2022/08/09 03:41:13;;;;;;;5.40;2.50;;;;;;;15.56;63.81;99608.04;88607;1274;99413;-69
2022/08/09 03:43:14;;;;;;;5.80;2.60;;;;;;;15.53;63.76;99607.00;88542;1274;23460;-71
2022/08/09 03:45:16;;;;;;;8.30;2.70;;;;;;;15.48;63.78;99604.93;88592;1272;22561;-72
2022/08/09 03:47:17;;;;;;;10.30;3.10;;;;;;;15.42;63.81;99605.28;88535;1271;99091;-71
2022/08/09 03:49:21;;;;;;;12.90;3.30;;;;;;;15.38;63.87;99608.91;88611;1271;22596;-71
2022/08/09 03:51:28;;;;;;;3.90;2.90;;;;;;;15.34;63.89;99607.02;88410;1271;25331;-70
2022/08/09 03:53:30;;;;;;;4.20;3.00;;;;;;;15.31;63.94;99610.70;88408;1274;99382;-71
2022/08/09 03:55:32;;;;;;;6.90;3.00;;;;;;;15.28;64.13;99615.34;88450;1271;26633;-71
2022/08/09 03:57:34;;;;;;;9.00;3.00;;;;;;;15.25;64.14;99621.14;88522;1271;22599;-71
2022/08/09 03:59:36;;;;;;;11.30;3.60;;;;;;;15.22;64.15;99618.88;88456;1271;99200;-71
2022/08/09 04:01:38;;;;;;;7.70;3.00;;;;;;;15.16;64.12;99619.36;88445;1271;24333;-71
2022/08/09 04:03:41;;;;;;;8.30;3.30;;;;;;;15.11;64.36;99618.73;88558;1271;22708;-71
2022/08/09 04:05:42;;;;;;;6.10;3.10;;;;;;;15.09;64.51;99619.19;88296;1274;99454;-71
2022/08/09 04:07:44;;;;;;;15.90;3.10;;;;;;;15.07;64.37;99623.40;88367;1274;22708;-71
2022/08/09 04:09:46;;;;;;;14.00;3.30;;;;;;;15.07;64.55;99622.33;88536;1271;25660;-71
2022/08/09 04:11:50;;;;;;;29.60;4.00;;;;;;;15.07;64.66;99621.98;88381;1271;99137;-71
2022/08/09 04:13:51;;;;;;;14.40;3.30;;;;;;;15.07;64.56;99623.42;88572;1271;26578;-73
2022/08/09 04:15:53;;;;;;;8.50;3.10;;;;;;;15.08;64.72;99628.33;88414;1271;22574;-71
2022/08/09 04:17:54;;;;;;;4.90;2.60;;;;;;;15.08;64.86;99629.35;88403;1271;100350;-72
2022/08/09 04:19:56;;;;;;;11.50;2.70;;;;;;;15.10;64.79;99628.71;88500;1271;22568;-70
2022/08/09 04:21:58;;;;;;;8.70;3.00;;;;;;;15.13;64.69;99630.51;88546;1270;23062;-71
2022/08/09 04:24:00;;;;;;;7.00;3.10;;;;;;;15.17;64.82;99633.31;88366;1274;100001;-72
2022/08/09 04:26:01;;;;;;;7.90;3.20;;;;;;;15.22;64.92;99632.64;88414;1271;25510;-71
2022/08/09 04:28:03;;;;;;;7.20;2.90;;;;;;;15.27;64.90;99632.75;88442;1271;22560;-71
2022/08/09 04:30:11;;;;;;;6.20;3.10;;;;;;;15.31;65.02;99632.63;88438;1271;98925;-71
2022/08/09 04:32:13;;;;;;;8.70;3.10;;;;;;;15.38;64.88;99630.35;89271;1271;25852;-71
2022/08/09 04:34:14;;;;;;;13.20;3.10;;;;;;;15.44;64.78;99628.05;88413;1271;22617;-72
2022/08/09 04:36:16;;;;;;;16.90;2.70;;;;;;;15.52;64.77;99629.01;88413;1271;99225;-71
2022/08/09 04:38:18;;;;;;;24.40;2.70;;;;;;;15.59;64.67;99628.95;88488;1271;25413;-71
2022/08/09 04:40:20;;;;;;;10.90;3.00;;;;;;;15.65;64.47;99623.80;88336;1274;25493;-71
2022/08/09 04:42:22;;;;;;;14.10;3.10;;;;;;;15.72;64.44;99627.31;88247;1274;99534;-71
2022/08/09 04:44:24;;;;;;;3.90;2.60;;;;;;;15.77;64.37;99626.12;88498;1271;22602;-72
2022/08/09 04:46:26;;;;;;;8.80;2.40;;;;;;;15.82;64.24;99628.12;88392;1271;22726;-72
2022/08/09 04:48:27;;;;;;;22.60;3.80;;;;;;;15.89;64.17;99628.12;87453;1275;99140;-72
2022/08/09 04:50:29;;;;;;;13.40;2.60;;;;;;;15.93;64.15;99625.53;88427;1271;22733;-70
2022/08/09 04:52:30;;;;;;;8.40;2.50;;;;;;;15.99;64.00;99627.50;88274;1274;99745;-71
2022/08/09 04:54:32;;;;;;;11.90;2.50;;;;;;;16.05;63.92;99627.88;88397;1273;24742;-71
2022/08/09 04:56:33;;;;;;;12.70;2.60;;;;;;;16.10;63.84;99626.16;88304;1274;22711;-72
2022/08/09 04:58:35;;;;;;;12.30;2.60;;;;;;;16.14;63.73;99627.79;88234;1274;99946;-71
2022/08/09 05:00:37;;;;;;;8.60;3.00;;;;;;;16.19;63.76;99624.74;88428;1271;22598;-70
2022/08/09 05:02:40;;;;;;;15.70;2.80;;;;;;;16.21;63.61;99624.23;88341;1271;22733;-71
2022/08/09 05:04:42;;;;;;;5.60;2.50;;;;;;;16.24;63.61;99624.38;88357;1271;99392;-70
2022/08/09 05:06:43;;;;;;;21.30;3.10;;;;;;;16.26;63.47;99625.18;88342;1274;24296;-71
2022/08/09 05:08:45;;;;;;;13.50;3.10;;;;;;;16.26;63.42;99627.27;88361;1271;23961;-70
2022/08/09 05:10:46;;;;;;;41.10;3.70;;;;;;;16.27;63.44;99628.09;87658;1274;99429;-70
2022/08/09 05:12:48;;;;;;;37.50;3.30;;;;;;;16.28;63.43;99634.26;88378;1271;25621;-71
2022/08/09 05:14:49;;;;;;;18.50;3.10;;;;;;;16.30;63.47;99631.48;88295;1271;22684;-71
2022/08/09 05:16:51;;;;;;;41.30;3.10;;;;;;;16.32;63.41;99633.30;88347;1271;99674;-71
2022/08/09 05:18:53;;;;;;;20.40;3.50;;;;;;;16.35;63.35;99635.08;88515;1271;22703;-71
2022/08/09 05:20:56;;;;;;;12.10;2.90;;;;;;;16.39;63.28;99635.73;88237;1274;22718;-69
2022/08/09 05:22:58;;;;;;;25.90;3.00;;;;;;;16.41;63.23;99639.11;88191;1275;98312;-71
2022/08/09 05:25:01;;;;;;;15.30;2.80;;;;;;;16.43;63.18;99634.91;88367;1271;24346;-71
2022/08/09 05:27:02;;;;;;;30.50;3.10;;;;;;;16.47;63.18;99636.13;88419;1271;24332;-71
2022/08/09 05:29:04;;;;;;;22.60;2.80;;;;;;;16.51;63.13;99639.25;88308;1271;100712;-71
2022/08/09 05:31:06;;;;;;;19.50;3.10;;;;;;;16.57;63.17;99639.05;88295;1271;24103;-70
2022/08/09 05:33:09;;;;;;;32.40;4.30;;;;;;;16.63;63.11;99636.90;88232;1274;22562;-71
2022/08/09 05:35:10;;;;;;;23.40;3.00;;;;;;;16.69;63.14;99641.99;87977;1276;99367;-70
2022/08/09 05:37:12;;;;;;;26.00;2.60;;;;;;;16.75;63.09;99640.36;88282;1271;22700;-71
2022/08/09 05:39:14;;;;;;;13.00;3.70;;;;;;;16.83;63.05;99641.66;88296;1272;25566;-71
2022/08/09 05:41:16;;;;;;;39.20;3.60;;;;;;;16.92;63.01;99642.89;88209;1271;99393;-72
2022/08/09 05:43:19;;;;;;;15.50;2.90;;;;;;;17.02;63.02;99646.73;88367;1271;22721;-71
2022/08/09 05:45:21;;;;;;;8.20;2.30;;;;;;;17.11;62.88;99645.79;88277;1274;25599;-72
2022/08/09 05:47:24;;;;;;;6.60;2.30;;;;;;;17.21;62.55;99645.86;88241;1271;99135;-71
2022/08/09 05:49:26;;;;;;;14.60;2.70;;;;;;;17.31;62.72;99649.80;88294;1271;27033;-71
2022/08/09 05:51:27;;;;;;;9.30;2.00;;;;;;;17.44;62.85;99651.97;88448;1271;22934;-70
2022/08/09 05:53:29;;;;;;;19.80;2.50;;;;;;;17.56;62.60;99650.48;88273;1271;99003;-70
2022/08/09 05:55:30;;;;;;;6.00;2.20;;;;;;;17.67;62.54;99651.52;88451;1273;22608;-69
2022/08/09 05:57:36;;;;;;;9.50;2.40;;;;;;;17.79;62.40;99654.31;88423;1271;22712;-70
2022/08/09 05:59:37;;;;;;;5.70;1.70;;;;;;;17.87;62.18;99650.92;88395;1274;99464;-71
2022/08/09 06:01:39;;;;;;;14.70;2.70;;;;;;;17.94;62.18;99653.30;88339;1271;22553;-71
2022/08/09 06:03:41;;;;;;;9.60;2.40;;;;;;;18.01;62.06;99650.54;88421;1271;25582;-72
2022/08/09 06:05:42;;;;;;;7.20;2.40;;;;;;;18.11;62.07;99654.51;88364;1271;99880;-71
2022/08/09 06:07:44;;;;;;;8.90;2.50;;;;;;;18.22;61.98;99654.59;88388;1271;22559;-71
2022/08/09 06:09:46;;;;;;;26.80;2.40;;;;;;;18.32;61.82;99653.92;88358;1271;23818;-71
2022/08/09 06:11:47;;;;;;;9.40;1.90;;;;;;;18.39;61.70;99655.92;88294;1274;100664;-71
2022/08/09 06:13:49;;;;;;;5.60;2.10;;;;;;;18.47;61.62;99652.16;88312;1274;22698;-71
2022/08/09 06:15:51;;;;;;;38.40;2.80;;;;;;;18.54;61.56;99651.30;88417;1271;22569;-71
2022/08/09 06:17:53;;;;;;;15.90;2.10;;;;;;;18.62;61.22;99655.98;88321;1271;99661;-72
2022/08/09 06:19:54;;;;;;;5.20;2.30;;;;;;;18.65;61.26;99655.73;88480;1271;22692;-71
2022/08/09 06:21:56;;;;;;;24.60;2.50;;;;;;;18.72;61.14;99653.26;88479;1271;25461;-71
2022/08/09 06:23:57;;;;;;;9.90;2.20;;;;;;;18.77;60.96;99655.73;88379;1271;99165;-71
2022/08/09 06:25:59;;;;;;;7.10;1.90;;;;;;;18.83;60.90;99654.59;88468;1271;22547;-72
2022/08/09 06:28:00;;;;;;;22.20;3.20;;;;;;;18.89;60.80;99655.62;88450;1271;22562;-71
2022/08/09 06:30:02;;;;;;;16.40;2.30;;;;;;;18.98;60.88;99651.46;88370;1271;99116;-72
2022/08/09 06:32:04;;;;;;;20.80;2.90;;;;;;;19.04;60.96;99650.10;88594;1271;22636;-71
2022/08/09 06:34:06;;;;;;;16.70;3.00;;;;;;;19.13;60.78;99653.03;88576;1271;22547;-72
2022/08/09 06:36:08;;;;;;;11.80;2.10;;;;;;;19.20;60.66;99655.71;88375;1271;99967;-73
2022/08/09 06:38:10;;;;;;;14.30;2.10;;;;;;;19.26;60.42;99654.23;88382;1271;24275;-71
2022/08/09 06:40:12;;;;;;;6.30;2.30;;;;;;;19.31;60.29;99653.48;88408;1272;26592;-72
2022/08/09 06:42:13;;;;;;;6.60;2.00;;;;;;;19.36;60.20;99654.39;88281;1274;99150;-72
2022/08/09 06:44:15;;;;;;;6.60;2.00;;;;;;;19.41;60.24;99657.06;88333;1274;25436;-71
2022/08/09 06:46:17;;;;;;;21.70;2.20;;;;;;;19.45;60.14;99654.04;88448;1271;22718;-72
2022/08/09 06:48:18;;;;;;;10.40;3.00;;;;;;;19.53;59.86;99655.93;88341;1271;99261;-71
2022/08/09 06:50:20;;;;;;;12.00;2.80;;;;;;;19.56;59.30;99655.39;88465;1271;24228;-72
2022/08/09 06:52:21;;;;;;;8.70;2.10;;;;;;;19.57;59.38;99655.83;88430;1271;25502;-73
2022/08/09 06:54:23;;;;;;;8.80;2.00;;;;;;;19.60;59.26;99658.34;88350;1271;99265;-72
2022/08/09 06:56:25;;;;;;;4.60;1.80;;;;;;;19.55;59.05;99650.48;88411;1271;22661;-72
2022/08/09 06:58:26;;;;;;;6.30;2.20;;;;;;;19.66;59.24;99661.42;88442;1271;22567;-73
2022/08/09 07:00:28;;;;;;;7.90;2.10;;;;;;;19.72;59.02;99659.91;88677;1271;100358;-72
2022/08/09 07:02:30;;;;;;;27.00;2.90;;;;;;;19.74;58.41;99656.52;88416;1271;25353;-72
2022/08/09 07:04:32;;;;;;;5.80;1.90;;;;;;;19.78;58.75;99658.60;88329;1274;99873;-72
2022/08/09 07:06:34;;;;;;;4.90;2.00;;;;;;;19.85;58.85;99655.38;88433;1271;22719;-71
2022/08/09 07:08:35;;;;;;;10.80;2.20;;;;;;;19.93;58.90;99652.09;88318;1271;23379;-72
2022/08/09 07:10:37;;;;;;;13.20;2.00;;;;;;;20.03;58.31;99655.48;88342;1271;101392;-72
2022/08/09 07:12:39;;;;;;;42.10;3.10;;;;;;;20.14;58.68;99653.58;88428;1271;22606;-72
2022/08/09 07:14:40;;;;;;;26.50;2.30;;;;;;;20.24;58.22;99658.29;88358;1274;24462;-72
2022/08/09 07:16:45;;;;;;;7.70;1.90;;;;;;;20.35;58.42;99662.86;88292;1274;99784;-72
2022/08/09 07:18:46;;;;;;;9.70;1.80;;;;;;;20.43;58.45;99665.38;88341;1274;25499;-72
2022/08/09 07:20:49;;;;;;;15.30;2.10;;;;;;;20.52;58.14;99666.67;88330;1274;22711;-72
2022/08/09 07:22:52;;;;;;;20.50;2.00;;;;;;;20.60;57.38;99670.73;88391;1271;100804;-72
2022/08/09 07:24:53;;;;;;;18.40;2.40;;;;;;;20.61;57.19;99668.10;88444;1271;23745;-71
2022/08/09 07:26:56;;;;;;;15.20;1.90;;;;;;;20.68;57.18;99666.68;88461;1271;22584;-72
2022/08/09 07:28:58;;;;;;;9.10;1.70;;;;;;;20.74;57.05;99670.37;88347;1272;99112;-72
2022/08/09 07:31:00;;;;;;;8.10;1.70;;;;;;;20.81;56.87;99672.44;88241;1274;24272;-72
2022/08/09 07:33:02;;;;;;;22.90;2.30;;;;;;;20.91;57.07;99672.55;88488;1271;25388;-72
2022/08/09 07:35:06;;;;;;;11.60;2.10;;;;;;;21.02;56.85;99673.80;88262;1275;99805;-71
2022/08/09 07:37:08;;;;;;;5.50;1.20;;;;;;;21.13;56.82;99676.38;88699;1271;24275;-70
2022/08/09 07:39:09;;;;;;;4.80;1.20;;;;;;;21.21;56.60;99676.18;88101;1271;24293;-71
2022/08/09 07:41:11;;;;;;;10.00;1.70;;;;;;;21.28;56.16;99679.77;88263;1271;98909;-72
2022/08/09 07:43:12;;;;;;;44.90;2.20;;;;;;;21.31;55.88;99673.65;88314;1275;22589;-72
2022/08/09 07:45:14;;;;;;;22.40;1.70;;;;;;;21.35;55.22;99676.85;88272;1274;22982;-73
2022/08/09 07:47:16;;;;;;;29.90;2.70;;;;;;;21.41;54.70;99681.58;88275;1271;99672;-73
2022/08/09 07:49:18;;;;;;;15.90;2.10;;;;;;;21.45;54.24;99684.27;88488;1271;26603;-72
2022/08/09 07:51:20;;;;;;;11.10;1.50;;;;;;;21.46;54.04;99687.38;88514;1272;22772;-73
2022/08/09 07:53:21;;;;;;;8.00;1.60;;;;;;;21.50;54.66;99679.73;88508;1271;99940;-72
2022/08/09 07:55:24;;;;;;;4.90;1.40;;;;;;;21.60;55.07;99680.39;88419;1274;22892;-73
2022/08/09 07:57:25;;;;;;;37.60;2.50;;;;;;;21.75;54.91;99678.80;88347;1271;22780;-75
2022/08/09 07:59:27;;;;;;;32.70;2.70;;;;;;;21.87;54.61;99678.83;88402;1271;101289;-73
2022/08/09 08:01:29;;;;;;;4.20;1.30;;;;;;;21.95;54.09;99685.56;88399;1271;23995;-73
2022/08/09 08:03:30;;;;;;;29.00;2.90;;;;;;;22.00;54.29;99684.23;88454;1271;25257;-71
2022/08/09 08:05:32;;;;;;;20.10;2.00;;;;;;;22.08;53.76;99683.03;88275;1272;101967;-72
2022/08/09 08:07:34;;;;;;;25.70;2.60;;;;;;;22.14;54.23;99682.85;88475;1271;26492;-73
2022/08/09 08:09:35;;;;;;;13.00;1.70;;;;;;;22.25;53.29;99680.52;88405;1271;22737;-72
2022/08/09 08:11:37;;;;;;;16.60;1.90;;;;;;;22.33;53.61;99681.48;88275;1274;99688;-72
2022/08/09 08:13:38;;;;;;;30.10;2.40;;;;;;;22.38;53.05;99681.03;88388;1271;22561;-72
2022/08/09 08:15:40;;;;;;;14.30;1.50;;;;;;;22.44;52.84;99681.22;88365;1271;22597;-72
2022/08/09 08:17:42;;;;;;;14.20;2.10;;;;;;;22.49;52.43;99684.77;88266;1274;99476;-72
2022/08/09 08:19:43;;;;;;;14.30;1.40;;;;;;;22.45;51.52;99680.21;88397;1271;22585;-72
2022/08/09 08:21:49;;;;;;;25.40;1.70;;;;;;;22.44;51.82;99680.85;88417;1271;25422;-72
2022/08/09 08:23:50;;;;;;;30.60;2.20;;;;;;;22.50;51.69;99680.16;88941;1271;99279;-73
2022/08/09 08:25:52;;;;;;;52.50;2.60;;;;;;;22.55;50.08;99679.90;88381;1271;22866;-72
2022/08/09 08:27:54;;;;;;;4.40;1.30;;;;;;;22.58;50.80;99684.13;88462;1271;22553;-71
2022/08/09 08:29:55;;;;;;;3.60;1.40;;;;;;;22.65;51.17;99685.88;88310;1271;99260;-72
2022/08/09 08:31:57;;;;;;;13.40;1.30;;;;;;;22.71;50.39;99686.26;88296;1274;22591;-74
2022/08/09 08:33:58;;;;;;;20.50;1.80;;;;;;;22.78;50.04;99691.40;88344;1274;25369;-70
2022/08/09 08:36:00;;;;;;;16.50;1.60;;;;;;;22.89;50.08;99689.70;88331;1274;99353;-72
2022/08/09 08:38:02;;;;;;;13.70;1.60;;;;;;;23.01;50.24;99686.66;88605;1272;22685;-73
2022/08/09 08:40:05;;;;;;;13.80;1.90;;;;;;;23.08;50.18;99688.34;88443;1273;25485;-73
2022/08/09 08:42:07;;;;;;;13.50;1.30;;;;;;;23.14;49.83;99692.71;88256;1271;99935;-72
2022/08/09 08:44:11;;;;;;;12.80;1.20;;;;;;;23.24;49.72;99693.60;88377;1271;22572;-72
2022/08/09 08:46:16;;;;;;;5.40;1.40;;;;;;;23.34;49.59;99694.73;88335;1272;27358;-72
2022/08/09 08:48:19;;;;;;;18.40;1.80;;;;;;;23.40;48.83;99691.81;88321;1271;100867;-72
2022/08/09 08:50:22;;;;;;;5.70;1.30;;;;;;;23.47;49.08;99693.17;88414;1271;23752;-71
2022/08/09 08:52:27;;;;;;;10.20;1.30;;;;;;;23.56;49.02;99694.81;88496;1274;25354;-73
2022/08/09 08:54:29;;;;;;;18.80;1.60;;;;;;;23.58;49.10;99687.82;88475;1271;100313;-72
2022/08/09 08:56:38;;;;;;;36.40;2.70;;;;;;;23.64;48.97;99692.89;88474;1272;24092;-72
2022/08/09 08:58:40;;;;;;;14.30;1.70;;;;;;;23.76;49.38;99688.50;88344;1271;100137;-72
2022/08/09 09:00:43;;;;;;;16.30;1.80;;;;;;;23.93;49.11;99695.44;88470;1271;25367;-72
2022/08/09 09:02:46;;;;;;;10.80;1.40;;;;;;;23.99;48.34;99694.73;88332;1274;22547;-72
2022/08/09 09:04:49;;;;;;;8.30;1.20;;;;;;;23.87;48.16;99696.87;88121;1274;99622;-73
2022/08/09 09:06:55;;;;;;;15.90;1.70;;;;;;;23.66;47.40;99696.99;88445;1272;22567;-72
2022/08/09 09:08:59;;;;;;;6.50;1.10;;;;;;;23.58;48.32;99698.58;89089;1274;24247;-73
2022/08/09 09:11:05;;;;;;;12.60;1.30;;;;;;;23.67;47.94;99690.65;88333;1272;100957;-71
2022/08/09 09:13:07;;;;;;;7.50;1.10;;;;;;;23.78;48.02;99693.02;88948;1271;22563;-72
2022/08/09 09:15:10;;;;;;;5.50;1.10;;;;;;;23.67;47.23;99688.14;88454;1271;25383;-72
2022/08/09 09:17:13;;;;;;;7.00;1.50;;;;;;;23.62;47.01;99687.96;88432;1271;99048;-72
2022/08/09 09:19:15;;;;;;;3.80;1.10;;;;;;;23.68;48.15;99685.57;88370;1274;22564;-72
2022/08/09 09:21:17;;;;;;;12.90;1.50;;;;;;;23.82;48.09;99685.64;88467;1274;22747;-71
2022/08/09 09:23:43;;;;;;;16.90;1.90;;;;;;;23.95;47.36;99689.52;88163;1277;99314;-73
2022/08/09 09:25:46;;;;;;;3.50;1.10;;;;;;;23.93;47.06;99692.33;88340;1274;24239;-72
2022/08/09 09:27:55;;;;;;;14.90;1.80;;;;;;;23.93;47.59;99692.89;88408;1274;22728;-72
2022/08/09 09:30:07;;;;;;;3.00;1.10;;;;;;;24.00;47.18;99690.17;88168;1277;100866;-72
2022/08/09 09:32:13;;;;;;;15.20;1.00;;;;;;;24.05;47.25;99684.84;88362;1274;22728;-72
2022/08/09 09:34:14;;;;;;;21.10;1.50;;;;;;;24.14;46.90;99684.92;88284;1277;23500;-72
2022/08/09 09:36:16;;;;;;;16.20;2.30;;;;;;;24.25;46.99;99683.27;88214;1277;99202;-72
2022/08/09 09:38:21;;;;;;;12.60;1.50;;;;;;;24.39;46.98;99682.39;88280;1277;22863;-71